Time;durP1;ratioP1;P1;durP2;ratioP2;P2;SDS_P1;SDS_P2;PMS_P1;PMS_P2;Temp;Humidity;BMP_temperature;BMP_pressure;BME280_temperature;BME280_humidity;BME280_pressure;Samples;Min_cycle;Max_cycle;Signal;HPM_P1;HPM_P2
2024/01/15 00:01:21;;;;;;;21.23;18.85;;;;;;;;;;5073123;28;20362;-57
2024/01/15 00:03:47;;;;;;;17.92;16.13;;;;;;;;;;5084493;28;20039;-58
2024/01/15 00:06:13;;;;;;;17.55;15.68;;;;;;;;;;5083866;28;20394;-55
2024/01/15 00:08:39;;;;;;;20.08;16.05;;;;;;;;;;5082223;28;20103;-52
2024/01/15 00:11:05;;;;;;;19.58;17.08;;;;;;;;;;5080827;28;20032;-54
2024/01/15 00:13:31;;;;;;;17.05;15.13;;;;;;;;;;5071265;28;20078;-55
2024/01/15 00:15:57;;;;;;;16.65;14.95;;;;;;;;;;5076261;28;20028;-55
2024/01/15 00:18:23;;;;;;;17.05;15.25;;;;;;;;;;5063064;28;20025;-57
2024/01/15 00:20:49;;;;;;;19.35;17.35;;;;;;;;;;5090768;28;20074;-56
2024/01/15 00:23:15;;;;;;;18.88;15.10;;;;;;;;;;5073463;28;20497;-58
2024/01/15 00:25:41;;;;;;;19.25;17.20;;;;;;;;;;5082392;28;20108;-57
2024/01/15 00:28:07;;;;;;;30.85;16.15;;;;;;;;;;5083461;28;20024;-57
2024/01/15 00:30:33;;;;;;;18.02;16.13;;;;;;;;;;5089231;28;20401;-57
2024/01/15 00:32:59;;;;;;;20.17;14.70;;;;;;;;;;5089880;28;20086;-56
2024/01/15 00:35:25;;;;;;;17.27;15.48;;;;;;;;;;5090226;28;20106;-59
2024/01/15 00:37:51;;;;;;;16.38;14.68;;;;;;;;;;5090283;28;20376;-55
2024/01/15 00:40:17;;;;;;;16.67;14.88;;;;;;;;;;5072128;28;20488;-53
2024/01/15 00:42:43;;;;;;;16.83;15.10;;;;;;;;;;5085249;28;20024;-49
2024/01/15 00:45:10;;;;;;;16.55;14.85;;;;;;;;;;5088797;28;20031;-55
2024/01/15 00:47:36;;;;;;;15.60;14.00;;;;;;;;;;5090265;28;20032;-58
2024/01/15 00:50:02;;;;;;;19.58;17.58;;;;;;;;;;5090337;28;20485;-58
2024/01/15 00:52:27;;;;;;;23.52;16.05;;;;;;;;;;5071223;28;20031;-54
2024/01/15 00:54:53;;;;;;;17.27;15.48;;;;;;;;;;5069208;28;20101;-54
2024/01/15 00:57:19;;;;;;;16.58;14.88;;;;;;;;;;5069921;28;20129;-58
2024/01/15 00:59:46;;;;;;;16.27;14.57;;;;;;;;;;5069589;28;20028;-56
2024/01/15 01:02:12;;;;;;;23.02;20.08;;;;;;;;;;5069757;28;20016;-59
2024/01/15 01:04:38;;;;;;;17.20;15.13;;;;;;;;;;5089791;28;20016;-56
2024/01/15 01:07:04;;;;;;;15.98;14.25;;;;;;;;;;5090200;28;20027;-59
2024/01/15 01:09:30;;;;;;;16.33;13.45;;;;;;;;;;5055645;28;20085;-58
2024/01/15 01:11:56;;;;;;;21.10;16.23;;;;;;;;;;5089426;28;20028;-56
2024/01/15 01:14:23;;;;;;;27.08;14.90;;;;;;;;;;5090044;28;20076;-58
2024/01/15 01:16:49;;;;;;;19.88;15.20;;;;;;;;;;5081695;28;20024;-57
2024/01/15 01:19:15;;;;;;;16.95;14.80;;;;;;;;;;5090107;28;20024;-58
2024/01/15 01:21:41;;;;;;;18.42;16.58;;;;;;;;;;5089671;28;20070;-57
2024/01/15 01:24:07;;;;;;;19.33;16.73;;;;;;;;;;5090695;28;20482;-58
2024/01/15 01:26:33;;;;;;;20.33;16.10;;;;;;;;;;5090871;28;20031;-58
2024/01/15 01:28:59;;;;;;;14.90;12.13;;;;;;;;;;5082575;28;20470;-57
2024/01/15 01:31:25;;;;;;;15.73;13.02;;;;;;;;;;5088370;28;20024;-57
2024/01/15 01:33:51;;;;;;;15.45;13.10;;;;;;;;;;5069702;28;20414;-55
2024/01/15 01:36:17;;;;;;;14.68;11.95;;;;;;;;;;5060286;28;20020;-58
2024/01/15 01:38:43;;;;;;;17.20;13.10;;;;;;;;;;5089591;28;20539;-54
2024/01/15 01:41:10;;;;;;;14.40;11.10;;;;;;;;;;5089141;28;20017;-58
2024/01/15 01:43:36;;;;;;;19.15;13.85;;;;;;;;;;5069969;28;20462;-56
2024/01/15 01:46:03;;;;;;;16.67;11.90;;;;;;;;;;5070688;28;20071;-56
2024/01/15 01:48:29;;;;;;;17.80;12.20;;;;;;;;;;5070287;28;20028;-58
2024/01/15 01:50:57;;;;;;;14.40;11.05;;;;;;;;;;5088207;28;20535;-56
2024/01/15 01:53:24;;;;;;;14.52;10.55;;;;;;;;;;5088483;28;20032;-58
2024/01/15 01:55:51;;;;;;;18.02;11.13;;;;;;;;;;5088449;28;20024;-57
2024/01/15 01:58:17;;;;;;;16.60;13.40;;;;;;;;;;5088331;28;20020;-59
2024/01/15 02:00:43;;;;;;;27.67;15.40;;;;;;;;;;5088346;28;20068;-58
2024/01/15 02:03:10;;;;;;;15.70;11.20;;;;;;;;;;5069836;28;20054;-59
2024/01/15 02:05:36;;;;;;;16.98;13.05;;;;;;;;;;5088292;28;20152;-58
2024/01/15 02:08:02;;;;;;;15.90;10.98;;;;;;;;;;5088425;28;20413;-56
2024/01/15 02:10:28;;;;;;;23.88;10.38;;;;;;;;;;5088300;28;20039;-57
2024/01/15 02:12:54;;;;;;;12.88;7.60;;;;;;;;;;5069500;28;20477;-56
2024/01/15 02:15:20;;;;;;;12.55;7.70;;;;;;;;;;5088208;28;20155;-54
2024/01/15 02:18:09;;;;;;;14.68;8.25;;;;;;;;;;5088115;28;20114;-55
2024/01/15 02:20:35;;;;;;;12.60;7.95;;;;;;;;;;5088312;28;20020;-57
2024/01/15 02:23:08;;;;;;;15.43;8.95;;;;;;;;;;5087906;28;20028;-56
2024/01/15 02:25:35;;;;;;;15.27;9.45;;;;;;;;;;5070035;28;20024;-57
2024/01/15 02:28:01;;;;;;;14.20;7.55;;;;;;;;;;5070178;28;20028;-57
2024/01/15 02:30:28;;;;;;;14.00;9.88;;;;;;;;;;5088120;28;20047;-58
2024/01/15 02:32:54;;;;;;;15.02;10.02;;;;;;;;;;5069183;28;20082;-57
2024/01/15 02:35:20;;;;;;;10.93;6.55;;;;;;;;;;5069839;28;20497;-56
2024/01/15 02:37:46;;;;;;;16.77;8.98;;;;;;;;;;5087900;28;20117;-58
2024/01/15 02:40:12;;;;;;;15.27;9.15;;;;;;;;;;5088007;28;20027;-59
2024/01/15 02:42:38;;;;;;;15.18;8.43;;;;;;;;;;5049123;28;1078904;-57
2024/01/15 02:45:04;;;;;;;15.55;7.65;;;;;;;;;;5088987;28;20534;-55
2024/01/15 02:47:30;;;;;;;14.48;8.85;;;;;;;;;;5088574;28;20451;-57
2024/01/15 02:49:56;;;;;;;15.45;8.95;;;;;;;;;;5088920;28;20035;-56
2024/01/15 02:52:22;;;;;;;13.80;9.30;;;;;;;;;;5087867;28;20512;-58
2024/01/15 02:54:48;;;;;;;22.73;10.30;;;;;;;;;;5087618;28;20047;-57
2024/01/15 02:57:14;;;;;;;17.58;10.65;;;;;;;;;;5088192;28;20048;-57
2024/01/15 02:59:40;;;;;;;16.65;8.57;;;;;;;;;;5077085;28;20676;-58
2024/01/15 03:02:06;;;;;;;13.73;8.30;;;;;;;;;;5083396;28;20028;-59
2024/01/15 03:04:32;;;;;;;18.80;10.27;;;;;;;;;;5088637;28;20016;-56
2024/01/15 03:06:58;;;;;;;16.75;8.93;;;;;;;;;;5088293;28;20020;-53
2024/01/15 03:09:24;;;;;;;22.10;10.20;;;;;;;;;;5088365;28;20024;-58
2024/01/15 03:11:50;;;;;;;11.15;6.45;;;;;;;;;;5069687;28;20028;-57
2024/01/15 03:14:16;;;;;;;17.60;9.02;;;;;;;;;;5088117;28;20036;-58
2024/01/15 03:16:42;;;;;;;16.13;10.05;;;;;;;;;;5070017;28;20035;-59
2024/01/15 03:19:08;;;;;;;13.95;9.05;;;;;;;;;;5088110;28;20028;-57
2024/01/15 03:21:34;;;;;;;11.93;6.97;;;;;;;;;;5079096;28;20065;-55
2024/01/15 03:24:00;;;;;;;14.20;8.48;;;;;;;;;;5069937;28;20028;-57
2024/01/15 03:26:26;;;;;;;14.48;7.82;;;;;;;;;;5069946;28;20562;-56
2024/01/15 03:28:52;;;;;;;11.82;8.57;;;;;;;;;;5070126;28;20031;-58
2024/01/15 03:31:18;;;;;;;11.63;6.72;;;;;;;;;;5087632;28;20105;-56
2024/01/15 03:33:44;;;;;;;15.82;6.97;;;;;;;;;;5088306;28;20055;-56
2024/01/15 03:36:10;;;;;;;14.00;6.75;;;;;;;;;;5088390;28;20026;-57
2024/01/15 03:38:39;;;;;;;12.23;7.22;;;;;;;;;;5088232;28;20028;-55
2024/01/15 03:41:05;;;;;;;;;;;;;;;;;;5087990;28;20028;-54
2024/01/15 03:43:31;;;;;;;29.42;8.57;;;;;;;;;;5069913;28;19957;-56
2024/01/15 03:45:57;;;;;;;14.73;7.22;;;;;;;;;;5082623;28;20538;-55
2024/01/15 03:48:23;;;;;;;13.18;7.05;;;;;;;;;;5085587;28;20031;-58
2024/01/15 03:50:48;;;;;;;17.20;8.57;;;;;;;;;;5087959;28;20028;-58
2024/01/15 03:53:14;;;;;;;12.50;7.10;;;;;;;;;;5087174;28;20401;-56
2024/01/15 03:55:40;;;;;;;19.30;9.23;;;;;;;;;;5087665;28;20085;-58
2024/01/15 03:58:06;;;;;;;15.25;8.45;;;;;;;;;;5087767;28;20078;-59
2024/01/15 04:00:32;;;;;;;14.45;8.57;;;;;;;;;;5087466;28;20028;-59
2024/01/15 04:02:58;;;;;;;21.80;9.52;;;;;;;;;;5086933;28;20032;-58
2024/01/15 04:05:24;;;;;;;11.88;7.20;;;;;;;;;;5087763;28;20024;-58
2024/01/15 04:07:50;;;;;;;10.57;6.25;;;;;;;;;;5091059;28;20440;-57
2024/01/15 04:10:16;;;;;;;15.43;9.25;;;;;;;;;;5091652;28;20028;-57
2024/01/15 04:12:42;;;;;;;13.68;7.80;;;;;;;;;;5090932;28;20023;-56
2024/01/15 04:15:08;;;;;;;18.35;8.18;;;;;;;;;;5091383;28;20099;-54
2024/01/15 04:17:34;;;;;;;12.35;7.70;;;;;;;;;;5091311;28;20478;-57
2024/01/15 04:20:00;;;;;;;12.23;8.35;;;;;;;;;;5091470;28;20028;-56
2024/01/15 04:22:27;;;;;;;10.07;5.95;;;;;;;;;;5090414;28;20489;-57
2024/01/15 04:24:53;;;;;;;12.10;6.68;;;;;;;;;;5090919;28;20016;-56
2024/01/15 04:27:19;;;;;;;10.15;5.95;;;;;;;;;;5091059;28;20099;-59
2024/01/15 04:29:45;;;;;;;13.63;7.60;;;;;;;;;;5091242;28;20500;-57
2024/01/15 04:32:11;;;;;;;11.70;7.00;;;;;;;;;;5090541;28;20461;-58
2024/01/15 04:34:37;;;;;;;12.05;7.20;;;;;;;;;;5082771;28;20494;-56
2024/01/15 04:37:03;;;;;;;12.50;7.45;;;;;;;;;;5090637;28;20024;-55
2024/01/15 04:39:30;;;;;;;11.73;7.15;;;;;;;;;;5090481;28;20667;-56
2024/01/15 04:41:55;;;;;;;11.75;6.90;;;;;;;;;;5076630;28;20048;-56
2024/01/15 04:44:21;;;;;;;12.30;7.03;;;;;;;;;;5087926;28;20454;-53
2024/01/15 04:46:47;;;;;;;14.38;7.75;;;;;;;;;;5090981;28;20024;-56
2024/01/15 04:49:13;;;;;;;12.80;8.50;;;;;;;;;;5082714;28;20054;-58
2024/01/15 04:51:39;;;;;;;12.50;7.72;;;;;;;;;;5090075;28;20024;-54
2024/01/15 04:54:05;;;;;;;12.55;7.53;;;;;;;;;;5090802;28;20024;-54
2024/01/15 04:56:31;;;;;;;13.15;8.25;;;;;;;;;;5089633;28;20394;-58
2024/01/15 04:58:57;;;;;;;16.20;8.70;;;;;;;;;;5090480;28;20024;-57
2024/01/15 05:01:23;;;;;;;13.00;7.60;;;;;;;;;;5089679;28;20039;-59
2024/01/15 05:03:49;;;;;;;13.13;7.82;;;;;;;;;;5090385;28;20024;-58
2024/01/15 05:06:16;;;;;;;13.10;7.80;;;;;;;;;;5090592;28;20028;-59
2024/01/15 05:08:42;;;;;;;13.60;8.48;;;;;;;;;;5090033;28;20020;-57
2024/01/15 05:11:08;;;;;;;13.20;7.85;;;;;;;;;;5089569;28;20105;-56
2024/01/15 05:13:34;;;;;;;13.50;8.10;;;;;;;;;;5089939;28;20056;-57
2024/01/15 05:16:00;;;;;;;15.35;8.98;;;;;;;;;;5072290;28;20024;-58
2024/01/15 05:18:26;;;;;;;14.10;8.25;;;;;;;;;;5089293;28;20077;-57
2024/01/15 05:20:52;;;;;;;25.88;9.48;;;;;;;;;;5071776;28;20024;-59
2024/01/15 05:23:18;;;;;;;13.30;8.05;;;;;;;;;;5071350;28;20492;-55
2024/01/15 05:25:44;;;;;;;13.45;8.43;;;;;;;;;;5090083;28;20016;-58
2024/01/15 05:28:10;;;;;;;18.90;9.25;;;;;;;;;;5090133;28;20032;-53
2024/01/15 05:30:36;;;;;;;14.25;8.43;;;;;;;;;;5089875;28;20023;-58
2024/01/15 05:33:02;;;;;;;14.13;9.20;;;;;;;;;;5089487;28;20035;-56
2024/01/15 05:35:28;;;;;;;13.73;8.43;;;;;;;;;;5089946;28;20027;-54
2024/01/15 05:37:54;;;;;;;16.02;9.10;;;;;;;;;;5089832;28;20355;-57
2024/01/15 05:40:20;;;;;;;14.10;8.35;;;;;;;;;;5089951;28;20024;-58
2024/01/15 05:42:46;;;;;;;12.70;7.40;;;;;;;;;;5088443;28;20122;-60
2024/01/15 05:45:12;;;;;;;13.40;8.10;;;;;;;;;;5089709;28;20032;-58
2024/01/15 05:47:38;;;;;;;12.70;7.80;;;;;;;;;;5089423;28;20016;-57
2024/01/15 05:50:04;;;;;;;13.18;7.55;;;;;;;;;;5089578;28;20559;-58
2024/01/15 05:52:30;;;;;;;12.40;7.18;;;;;;;;;;5070645;28;20024;-55
2024/01/15 05:54:56;;;;;;;13.45;8.25;;;;;;;;;;5088593;28;20085;-61
2024/01/15 05:57:22;;;;;;;12.07;7.00;;;;;;;;;;5089272;28;20020;-58
2024/01/15 05:59:48;;;;;;;15.88;9.35;;;;;;;;;;5089521;28;20020;-59
2024/01/15 06:02:14;;;;;;;14.45;8.00;;;;;;;;;;5088633;28;20016;-57
2024/01/15 06:04:40;;;;;;;15.73;8.30;;;;;;;;;;5089093;28;20020;-56
2024/01/15 06:07:06;;;;;;;11.50;6.72;;;;;;;;;;5089308;28;20027;-57
2024/01/15 06:09:32;;;;;;;12.65;7.20;;;;;;;;;;5070694;28;20195;-59
2024/01/15 06:11:58;;;;;;;15.35;8.15;;;;;;;;;;5070024;28;20028;-57
2024/01/15 06:14:24;;;;;;;11.77;7.28;;;;;;;;;;5088919;28;20058;-58
2024/01/15 06:16:50;;;;;;;11.85;7.10;;;;;;;;;;5089158;28;20036;-59
2024/01/15 06:19:16;;;;;;;11.88;6.97;;;;;;;;;;5088806;28;20028;-58
2024/01/15 06:21:42;;;;;;;19.58;7.35;;;;;;;;;;5088232;28;20650;-55
2024/01/15 06:24:09;;;;;;;12.10;6.90;;;;;;;;;;5088419;28;20024;-57
2024/01/15 06:26:35;;;;;;;13.85;9.75;;;;;;;;;;5088451;28;20027;-58
2024/01/15 06:29:02;;;;;;;11.77;6.78;;;;;;;;;;5070392;28;20015;-57
2024/01/15 06:31:28;;;;;;;12.75;7.57;;;;;;;;;;5069391;28;20127;-58
2024/01/15 06:33:56;;;;;;;16.42;7.07;;;;;;;;;;5088683;28;20042;-58
2024/01/15 06:36:22;;;;;;;11.55;6.90;;;;;;;;;;5088589;28;20028;-55
2024/01/15 06:38:48;;;;;;;10.80;6.35;;;;;;;;;;5088653;28;20085;-59
2024/01/15 06:41:14;;;;;;;14.25;7.40;;;;;;;;;;5087828;28;20095;-56
2024/01/15 06:43:40;;;;;;;11.45;6.82;;;;;;;;;;5069723;28;20588;-54
2024/01/15 06:46:06;;;;;;;12.77;6.75;;;;;;;;;;5088348;28;20024;-57
2024/01/15 06:48:32;;;;;;;10.52;6.50;;;;;;;;;;5088390;28;20028;-55
2024/01/15 06:50:57;;;;;;;10.68;6.20;;;;;;;;;;5087925;28;20507;-59
2024/01/15 06:53:24;;;;;;;11.30;6.60;;;;;;;;;;5088318;28;20054;-57
2024/01/15 06:55:51;;;;;;;10.70;6.40;;;;;;;;;;5087584;28;20104;-59
2024/01/15 06:58:17;;;;;;;10.55;6.15;;;;;;;;;;5079715;28;20024;-58
2024/01/15 07:00:43;;;;;;;18.50;9.15;;;;;;;;;;5087999;28;20069;-59
2024/01/15 07:03:09;;;;;;;14.00;8.25;;;;;;;;;;5088546;28;20099;-59
2024/01/15 07:05:37;;;;;;;14.07;8.40;;;;;;;;;;5088221;28;20023;-57
2024/01/15 07:08:03;;;;;;;13.90;9.23;;;;;;;;;;5088434;28;20024;-57
2024/01/15 07:10:29;;;;;;;14.23;10.25;;;;;;;;;;5070316;28;20661;-56
2024/01/15 07:12:55;;;;;;;14.40;11.18;;;;;;;;;;5087526;28;20079;-65
2024/01/15 07:15:21;;;;;;;14.90;12.25;;;;;;;;;;5088202;28;20099;-57
2024/01/15 07:17:47;;;;;;;15.30;13.00;;;;;;;;;;5087954;28;20081;-57
2024/01/15 07:20:13;;;;;;;15.30;13.38;;;;;;;;;;5083070;28;20047;-53
2024/01/15 07:22:39;;;;;;;16.20;14.50;;;;;;;;;;5078113;28;20099;-58
2024/01/15 07:25:06;;;;;;;17.00;15.30;;;;;;;;;;5077815;28;20101;-57
2024/01/15 07:27:32;;;;;;;17.27;15.57;;;;;;;;;;5067937;28;20021;-58
2024/01/15 07:29:58;;;;;;;19.50;17.70;;;;;;;;;;5083042;28;20107;-56
2024/01/15 07:32:24;;;;;;;20.63;18.70;;;;;;;;;;5087026;28;20446;-54
2024/01/15 07:34:50;;;;;;;21.63;18.85;;;;;;;;;;5087666;28;20024;-55
2024/01/15 07:37:16;;;;;;;19.05;17.25;;;;;;;;;;5082734;28;20028;-53
2024/01/15 07:39:42;;;;;;;19.50;17.60;;;;;;;;;;5086979;28;20357;-60
2024/01/15 07:42:32;;;;;;;19.70;17.90;;;;;;;;;;5089687;28;20022;-59
2024/01/15 07:44:55;;;;;;;20.40;18.50;;;;;;;;;;5089977;28;20036;-59
2024/01/15 07:47:20;;;;;;;26.88;24.77;;;;;;;;;;5092042;28;20050;-55
2024/01/15 07:49:46;;;;;;;26.65;24.55;;;;;;;;;;5091382;28;20020;-55
2024/01/15 07:52:13;;;;;;;24.92;22.92;;;;;;;;;;5091008;28;20051;-59
2024/01/15 07:54:39;;;;;;;27.38;24.98;;;;;;;;;;5085180;28;20031;-52
2024/01/15 07:57:05;;;;;;;25.52;23.42;;;;;;;;;;5091370;28;20582;-52
2024/01/15 07:59:31;;;;;;;24.42;22.42;;;;;;;;;;5091409;28;20569;-59
2024/01/15 08:01:59;;;;;;;27.35;25.15;;;;;;;;;;5090710;28;20082;-58
2024/01/15 08:04:24;;;;;;;27.00;24.90;;;;;;;;;;5091546;28;20032;-60
2024/01/15 08:06:51;;;;;;;26.52;24.33;;;;;;;;;;5091528;28;20146;-59
2024/01/15 08:09:17;;;;;;;24.65;22.55;;;;;;;;;;5091253;28;20036;-57
2024/01/15 08:11:43;;;;;;;24.05;22.05;;;;;;;;;;5091369;28;20128;-57
2024/01/15 08:14:10;;;;;;;22.40;20.50;;;;;;;;;;5084734;28;20096;-59
2024/01/15 08:16:36;;;;;;;21.65;19.75;;;;;;;;;;5082244;28;20027;-58
2024/01/15 08:19:03;;;;;;;21.63;19.73;;;;;;;;;;5085547;28;20029;-57
2024/01/15 08:21:29;;;;;;;21.05;19.10;;;;;;;;;;5088942;28;20096;-55
2024/01/15 08:23:57;;;;;;;21.17;19.02;;;;;;;;;;5091202;28;20481;-58
2024/01/15 08:26:23;;;;;;;19.80;18.00;;;;;;;;;;5072552;28;20078;-54
2024/01/15 08:28:49;;;;;;;18.63;16.83;;;;;;;;;;5091029;28;20023;-58
2024/01/15 08:31:15;;;;;;;18.70;16.90;;;;;;;;;;5090152;28;20024;-56
2024/01/15 08:33:41;;;;;;;18.50;16.70;;;;;;;;;;5090670;28;20026;-56
2024/01/15 08:36:07;;;;;;;19.30;17.40;;;;;;;;;;5091281;28;20537;-51
2024/01/15 08:38:33;;;;;;;18.60;16.80;;;;;;;;;;5090861;28;20032;-50
2024/01/15 08:41:00;;;;;;;18.60;16.80;;;;;;;;;;5090356;28;20129;-48
2024/01/15 08:43:26;;;;;;;21.38;17.13;;;;;;;;;;5081293;28;20025;-47
2024/01/15 08:45:52;;;;;;;17.50;15.70;;;;;;;;;;5070970;28;20029;-47
2024/01/15 08:48:18;;;;;;;17.95;16.02;;;;;;;;;;5070511;28;20037;-51
2024/01/15 08:50:47;;;;;;;17.35;15.55;;;;;;;;;;5072514;28;20022;-48
2024/01/15 08:53:14;;;;;;;17.63;15.73;;;;;;;;;;5081803;28;20031;-50
2024/01/15 08:55:40;;;;;;;16.98;15.23;;;;;;;;;;5087645;28;20153;-47
2024/01/15 08:58:06;;;;;;;21.48;15.73;;;;;;;;;;5090701;28;20564;-50
2024/01/15 09:00:32;;;;;;;17.10;15.30;;;;;;;;;;5090512;28;20128;-51
2024/01/15 09:02:58;;;;;;;17.00;15.20;;;;;;;;;;5089860;28;20073;-54
2024/01/15 09:05:24;;;;;;;17.45;15.65;;;;;;;;;;5090324;28;20035;-49
2024/01/15 09:07:51;;;;;;;16.02;14.27;;;;;;;;;;5090059;28;20024;-48
2024/01/15 09:10:17;;;;;;;18.50;15.35;;;;;;;;;;5090808;28;20286;-50
2024/01/15 09:12:43;;;;;;;18.25;16.13;;;;;;;;;;5089734;28;20063;-50
2024/01/15 09:15:09;;;;;;;16.40;14.70;;;;;;;;;;5090435;28;20048;-51
2024/01/15 09:17:35;;;;;;;17.80;15.13;;;;;;;;;;5090182;28;20140;-51
2024/01/15 09:20:04;;;;;;;26.58;15.25;;;;;;;;;;5090445;28;20447;-51
2024/01/15 09:22:30;;;;;;;17.20;15.25;;;;;;;;;;5089467;28;20040;-50
2024/01/15 09:24:56;;;;;;;20.20;16.08;;;;;;;;;;5090293;28;20090;-52
2024/01/15 09:27:22;;;;;;;16.10;14.40;;;;;;;;;;5089570;28;20474;-49
2024/01/15 09:29:48;;;;;;;15.80;14.10;;;;;;;;;;5083042;28;20077;-51
2024/01/15 09:32:15;;;;;;;15.75;14.02;;;;;;;;;;5088971;28;20055;-50
2024/01/15 09:34:41;;;;;;;17.63;14.35;;;;;;;;;;5090246;28;20032;-52
2024/01/15 09:37:07;;;;;;;16.60;14.70;;;;;;;;;;5090279;28;20513;-50
2024/01/15 09:39:33;;;;;;;17.63;15.73;;;;;;;;;;5090077;28;20028;-51
2024/01/15 09:42:00;;;;;;;17.08;14.88;;;;;;;;;;5089301;28;20077;-50
2024/01/15 09:44:26;;;;;;;15.38;13.65;;;;;;;;;;5089541;28;20035;-49
2024/01/15 09:46:52;;;;;;;15.60;13.90;;;;;;;;;;5089896;28;20667;-50
2024/01/15 09:49:19;;;;;;;17.30;14.93;;;;;;;;;;5089577;28;20024;-50
2024/01/15 09:51:45;;;;;;;15.35;13.65;;;;;;;;;;5089194;28;20024;-53
2024/01/15 09:54:13;;;;;;;15.15;13.15;;;;;;;;;;5071398;28;20162;-51
2024/01/15 09:56:39;;;;;;;15.40;13.60;;;;;;;;;;5089693;28;20137;-53
2024/01/15 09:59:06;;;;;;;15.10;13.27;;;;;;;;;;5089545;28;20028;-55
2024/01/15 10:01:32;;;;;;;15.73;13.48;;;;;;;;;;5088673;28;20020;-54
2024/01/15 10:03:58;;;;;;;16.50;14.32;;;;;;;;;;5088958;28;20496;-54
2024/01/15 10:06:27;;;;;;;16.00;12.98;;;;;;;;;;5071057;28;20081;-54
2024/01/15 10:08:54;;;;;;;15.43;12.80;;;;;;;;;;5089222;28;20060;-51
2024/01/15 10:11:21;;;;;;;14.98;12.73;;;;;;;;;;5088704;28;20028;-52
2024/01/15 10:13:52;;;;;;;17.88;13.82;;;;;;;;;;5088922;28;20417;-53
2024/01/15 10:16:18;;;;;;;16.15;13.10;;;;;;;;;;5089007;28;20432;-53
2024/01/15 10:18:44;;;;;;;15.00;12.10;;;;;;;;;;5088970;28;20031;-56
2024/01/15 10:21:10;;;;;;;15.00;12.30;;;;;;;;;;5070090;28;20023;-54
2024/01/15 10:23:36;;;;;;;17.83;13.57;;;;;;;;;;5088955;28;20016;-54
2024/01/15 10:26:02;;;;;;;16.17;13.00;;;;;;;;;;5089064;28;20153;-53
2024/01/15 10:28:30;;;;;;;32.80;13.93;;;;;;;;;;5089010;28;20479;-56
2024/01/15 10:30:57;;;;;;;14.70;11.40;;;;;;;;;;5089082;28;20381;-51
2024/01/15 10:33:25;;;;;;;16.05;12.57;;;;;;;;;;5069390;28;20496;-52
2024/01/15 10:35:53;;;;;;;16.30;12.18;;;;;;;;;;5089400;28;20028;-52
2024/01/15 10:38:22;;;;;;;15.00;12.40;;;;;;;;;;5089224;28;20078;-52
2024/01/15 10:40:48;;;;;;;16.35;12.45;;;;;;;;;;5089151;28;20047;-53
2024/01/15 10:43:14;;;;;;;16.38;12.68;;;;;;;;;;5087907;28;20120;-51
2024/01/15 10:45:40;;;;;;;15.50;10.93;;;;;;;;;;5088752;28;20493;-52
2024/01/15 10:48:06;;;;;;;15.82;12.25;;;;;;;;;;5089482;28;20035;-55
2024/01/15 10:50:32;;;;;;;15.15;11.35;;;;;;;;;;5088971;28;20478;-52
2024/01/15 10:52:58;;;;;;;14.88;10.70;;;;;;;;;;5088315;28;20157;-51
2024/01/15 10:55:24;;;;;;;14.65;9.00;;;;;;;;;;5089062;28;20103;-52
2024/01/15 10:57:50;;;;;;;15.98;10.30;;;;;;;;;;5088384;28;20056;-50
2024/01/15 11:00:17;;;;;;;12.30;7.20;;;;;;;;;;5076182;28;20097;-50
2024/01/15 11:02:44;;;;;;;17.52;7.75;;;;;;;;;;5067558;28;20067;-54
2024/01/15 11:05:10;;;;;;;10.60;6.10;;;;;;;;;;5068144;28;20086;-54
2024/01/15 11:07:40;;;;;;;10.50;6.13;;;;;;;;;;5068097;28;20037;-52
2024/01/15 11:10:10;;;;;;;11.45;6.78;;;;;;;;;;5083114;28;20059;-50
2024/01/15 11:12:36;;;;;;;11.77;6.97;;;;;;;;;;5087298;28;20133;-53
2024/01/15 11:15:04;;;;;;;11.52;7.30;;;;;;;;;;5087058;28;20765;-52
2024/01/15 11:17:50;;;;;;;9.88;5.70;;;;;;;;;;5091099;28;20032;-53
2024/01/15 11:20:16;;;;;;;11.40;6.88;;;;;;;;;;5092109;28;20098;-51
2024/01/15 11:22:48;;;;;;;10.10;6.00;;;;;;;;;;5091205;28;20023;-51
2024/01/15 11:25:15;;;;;;;10.40;6.20;;;;;;;;;;5092248;28;20020;-54
2024/01/15 11:27:47;;;;;;;11.32;6.57;;;;;;;;;;5092057;28;20016;-52
2024/01/15 11:30:13;;;;;;;11.32;6.10;;;;;;;;;;5091874;28;20303;-52
2024/01/15 11:32:42;;;;;;;11.88;6.38;;;;;;;;;;5091034;28;20020;-52
2024/01/15 11:35:13;;;;;;;9.88;5.80;;;;;;;;;;5091659;28;20368;-53
2024/01/15 11:37:51;;;;;;;11.68;6.25;;;;;;;;;;5091500;28;20035;-52
2024/01/15 11:40:37;;;;;;;10.82;6.55;;;;;;;;;;5083455;28;20024;-51
2024/01/15 11:43:03;;;;;;;9.45;5.40;;;;;;;;;;5085534;28;20063;-48
2024/01/15 11:45:30;;;;;;;12.48;7.22;;;;;;;;;;5092422;28;20036;-53
2024/01/15 11:48:02;;;;;;;9.70;5.70;;;;;;;;;;5091945;28;20477;-54
2024/01/15 11:50:33;;;;;;;10.20;6.15;;;;;;;;;;5091768;28;20077;-54
2024/01/15 11:53:02;;;;;;;8.70;5.20;;;;;;;;;;5091278;28;20051;-55
2024/01/15 11:55:36;;;;;;;11.32;6.05;;;;;;;;;;5091810;28;20031;-56
2024/01/15 11:58:03;;;;;;;11.05;6.18;;;;;;;;;;5091632;28;20032;-52
2024/01/15 12:00:29;;;;;;;9.45;5.60;;;;;;;;;;5091441;28;20027;-51
2024/01/15 12:02:55;;;;;;;10.95;6.40;;;;;;;;;;5090682;28;20077;-52
2024/01/15 12:05:22;;;;;;;11.77;6.22;;;;;;;;;;5091374;28;20385;-49
2024/01/15 12:07:49;;;;;;;9.30;5.40;;;;;;;;;;5091467;28;20028;-52
2024/01/15 12:10:20;;;;;;;11.68;6.07;;;;;;;;;;5091304;28;20016;-58
2024/01/15 12:12:46;;;;;;;9.43;5.53;;;;;;;;;;5090620;28;20055;-52
2024/01/15 12:15:12;;;;;;;8.85;5.30;;;;;;;;;;5090177;28;20052;-53
2024/01/15 12:17:38;;;;;;;10.85;6.40;;;;;;;;;;5072869;28;20034;-53
2024/01/15 12:20:07;;;;;;;11.32;6.35;;;;;;;;;;5090924;28;20028;-53
2024/01/15 12:22:33;;;;;;;10.20;5.90;;;;;;;;;;5089929;28;20483;-55
2024/01/15 12:24:59;;;;;;;10.10;6.13;;;;;;;;;;5090864;28;20524;-53
2024/01/15 12:27:26;;;;;;;9.60;5.60;;;;;;;;;;5090465;28;20103;-55
2024/01/15 12:29:53;;;;;;;9.77;5.70;;;;;;;;;;5090704;28;20028;-55
2024/01/15 12:32:21;;;;;;;9.73;5.75;;;;;;;;;;5090332;28;20020;-50
2024/01/15 12:34:47;;;;;;;9.45;5.60;;;;;;;;;;5090902;28;20020;-54
2024/01/15 12:37:13;;;;;;;9.80;5.75;;;;;;;;;;5090733;28;20035;-52
2024/01/15 12:39:39;;;;;;;10.23;5.80;;;;;;;;;;5090758;28;20034;-53
2024/01/15 12:42:05;;;;;;;10.40;5.72;;;;;;;;;;5090133;28;20475;-54
2024/01/15 12:44:31;;;;;;;10.15;5.97;;;;;;;;;;5084958;28;20028;-55
2024/01/15 12:46:58;;;;;;;24.08;6.90;;;;;;;;;;5082430;28;20040;-51
2024/01/15 12:49:24;;;;;;;10.95;6.40;;;;;;;;;;5070766;28;20044;-52
2024/01/15 12:51:54;;;;;;;10.85;6.45;;;;;;;;;;5071762;28;20028;-55
2024/01/15 12:54:20;;;;;;;10.30;5.90;;;;;;;;;;5090628;28;20417;-53
2024/01/15 12:56:46;;;;;;;11.27;6.40;;;;;;;;;;5072447;28;20020;-54
2024/01/15 12:59:13;;;;;;;10.40;6.20;;;;;;;;;;5090666;28;20035;-54
2024/01/15 13:01:42;;;;;;;9.57;5.60;;;;;;;;;;5090195;28;20405;-50
2024/01/15 13:04:08;;;;;;;10.13;6.00;;;;;;;;;;5090215;28;20032;-54
2024/01/15 13:06:35;;;;;;;9.68;5.68;;;;;;;;;;5088518;28;20156;-51
2024/01/15 13:09:01;;;;;;;10.18;5.80;;;;;;;;;;5069898;28;20058;-54
2024/01/15 13:11:28;;;;;;;9.68;5.70;;;;;;;;;;5069409;28;20061;-51
2024/01/15 13:13:54;;;;;;;9.77;5.70;;;;;;;;;;5069357;28;20492;-50
2024/01/15 13:16:20;;;;;;;10.80;6.13;;;;;;;;;;5079863;28;20028;-52
2024/01/15 13:18:46;;;;;;;9.20;5.72;;;;;;;;;;5084220;28;20035;-52
2024/01/15 13:21:12;;;;;;;15.50;7.40;;;;;;;;;;5065245;28;20082;-50
2024/01/15 13:23:38;;;;;;;11.60;6.13;;;;;;;;;;5058862;28;20534;-54
2024/01/15 13:26:05;;;;;;;11.85;6.55;;;;;;;;;;5089533;28;20525;-52
2024/01/15 13:28:31;;;;;;;12.73;6.10;;;;;;;;;;5089508;28;20081;-51
2024/01/15 13:30:57;;;;;;;10.05;5.90;;;;;;;;;;5077007;28;20029;-51
2024/01/15 13:33:23;;;;;;;12.98;6.65;;;;;;;;;;5085898;28;20088;-47
2024/01/15 13:35:52;;;;;;;10.65;6.20;;;;;;;;;;5089687;28;20133;-53
2024/01/15 13:38:18;;;;;;;10.65;6.20;;;;;;;;;;5088890;28;20161;-54
2024/01/15 13:40:45;;;;;;;27.25;6.43;;;;;;;;;;5089112;28;20063;-51
2024/01/15 13:43:11;;;;;;;11.10;6.22;;;;;;;;;;5070626;28;20032;-55
2024/01/15 13:45:37;;;;;;;9.57;5.68;;;;;;;;;;5088959;28;20039;-54
2024/01/15 13:48:05;;;;;;;10.27;6.20;;;;;;;;;;5089164;28;20028;-51
2024/01/15 13:50:31;;;;;;;10.52;6.18;;;;;;;;;;5079255;28;20020;-54
2024/01/15 13:52:57;;;;;;;10.00;5.90;;;;;;;;;;5068695;28;20089;-50
2024/01/15 13:55:23;;;;;;;10.68;6.20;;;;;;;;;;5069429;28;20040;-51
2024/01/15 13:57:49;;;;;;;10.32;6.05;;;;;;;;;;5059689;28;20283;-50
2024/01/15 14:00:18;;;;;;;11.00;6.40;;;;;;;;;;5069293;28;20052;-51
2024/01/15 14:02:44;;;;;;;13.27;7.07;;;;;;;;;;5080225;28;20036;-49
2024/01/15 14:05:12;;;;;;;10.73;6.25;;;;;;;;;;5090082;28;20035;-50
2024/01/15 14:07:39;;;;;;;9.93;5.88;;;;;;;;;;5089691;28;20016;-53
2024/01/15 14:10:05;;;;;;;10.00;5.90;;;;;;;;;;5089840;28;20076;-52
2024/01/15 14:12:31;;;;;;;12.25;5.63;;;;;;;;;;5088511;28;20405;-53
2024/01/15 14:14:57;;;;;;;9.20;5.40;;;;;;;;;;5088849;28;20107;-53
2024/01/15 14:17:23;;;;;;;9.23;5.45;;;;;;;;;;5088912;28;20052;-53
2024/01/15 14:19:49;;;;;;;9.90;5.72;;;;;;;;;;5088509;28;20070;-55
2024/01/15 14:22:15;;;;;;;9.48;5.60;;;;;;;;;;5081635;28;20068;-53